createdAt,value
2022-09-17T00:00:11.346Z,2.10
2022-09-17T00:05:37.848Z,2.10
2022-09-17T00:11:01.401Z,2.50
2022-09-17T00:16:32.400Z,2.93
2022-09-17T00:21:54.728Z,2.33
2022-09-17T00:27:16.914Z,2.90
2022-09-17T00:32:39.062Z,2.30
2022-09-17T00:38:01.210Z,2.23
2022-09-17T00:49:00.814Z,2.53
2022-09-17T00:54:24.582Z,2.00
2022-09-17T00:59:48.009Z,2.25
2022-09-17T01:05:10.407Z,2.43
2022-09-17T01:11:02.741Z,2.30
2022-09-17T01:16:32.737Z,2.37
2022-09-17T01:22:19.739Z,2.30
2022-09-17T01:27:58.813Z,2.50
2022-09-17T01:33:44.530Z,2.00
2022-09-17T01:39:32.320Z,2.00
2022-09-17T01:45:15.744Z,1.92
2022-09-17T01:50:45.371Z,1.93
2022-09-17T01:56:10.734Z,2.07
2022-09-17T02:01:38.348Z,1.80
2022-09-17T02:07:05.949Z,1.80
2022-09-17T02:12:33.117Z,2.07
2022-09-17T02:18:06.104Z,1.60
2022-09-17T02:23:33.154Z,1.60
2022-09-17T02:29:05.887Z,2.13
2022-09-17T02:34:28.849Z,1.93
2022-09-17T02:39:51.215Z,2.35
2022-09-17T02:45:41.074Z,1.80
2022-09-17T02:51:20.118Z,1.55
2022-09-17T02:57:03.980Z,1.85
2022-09-17T03:02:55.762Z,2.10
2022-09-17T03:08:21.898Z,1.80
2022-09-17T03:13:44.560Z,1.47
2022-09-17T03:19:06.861Z,1.37
2022-09-17T03:24:29.010Z,1.50
2022-09-17T03:29:51.127Z,1.87
2022-09-17T03:35:13.326Z,1.72
2022-09-17T03:40:36.076Z,1.40
2022-09-17T03:45:59.034Z,1.60
2022-09-17T03:51:21.225Z,1.80
2022-09-17T03:56:43.451Z,1.77
2022-09-17T04:02:05.660Z,1.90
2022-09-17T04:07:28.252Z,1.50
2022-09-17T04:12:50.375Z,1.40
2022-09-17T04:18:16.090Z,1.80
2022-09-17T04:23:38.291Z,1.45
2022-09-17T04:29:01.533Z,1.80
2022-09-17T04:34:24.371Z,1.40
2022-09-17T04:39:46.496Z,1.60
2022-09-17T04:45:08.638Z,1.60
2022-09-17T04:50:31.642Z,1.70
2022-09-17T04:55:55.298Z,1.30
2022-09-17T05:01:19.197Z,1.57
2022-09-17T05:06:41.731Z,1.67
2022-09-17T05:12:04.354Z,1.10
2022-09-17T05:17:26.479Z,1.98
2022-09-17T05:22:54.877Z,1.75
2022-09-17T05:28:17.370Z,1.60
2022-09-17T05:33:39.567Z,1.22
2022-09-17T05:39:02.175Z,1.37
2022-09-17T05:44:26.252Z,1.30
2022-09-17T05:49:49.020Z,1.50
2022-09-17T05:55:11.452Z,1.30
2022-09-17T06:00:34.021Z,1.47
2022-09-17T06:06:01.359Z,1.25
2022-09-17T06:11:24.233Z,1.10
2022-09-17T06:16:46.976Z,1.07
2022-09-17T06:22:09.142Z,1.10
2022-09-17T06:27:31.287Z,1.40
2022-09-17T06:32:53.418Z,1.40
2022-09-17T06:38:18.766Z,1.10
2022-09-17T06:43:42.038Z,1.40
2022-09-17T06:49:04.988Z,1.25
2022-09-17T06:54:27.374Z,0.90
2022-09-17T06:59:51.129Z,1.80
2022-09-17T07:05:13.776Z,1.62
2022-09-17T07:10:36.650Z,1.60
2022-09-17T07:16:01.544Z,2.00
2022-09-17T07:21:25.515Z,1.72
2022-09-17T07:26:47.780Z,1.80
2022-09-17T07:32:10.525Z,2.00
2022-09-17T07:37:33.747Z,2.17
2022-09-17T07:42:56.260Z,1.62
2022-09-17T07:48:18.374Z,1.65
2022-09-17T07:53:41.521Z,2.10
2022-09-17T07:59:04.677Z,1.87
2022-09-17T08:04:27.047Z,2.30
2022-09-17T08:09:49.192Z,2.40
2022-09-17T08:15:11.547Z,2.70
2022-09-17T08:20:34.513Z,2.08
2022-09-17T08:26:00.961Z,1.98
2022-09-17T08:31:30.828Z,2.10
2022-09-17T08:36:53.365Z,1.98
2022-09-17T08:42:26.547Z,1.87
2022-09-17T08:47:51.925Z,1.90
2022-09-17T08:53:27.911Z,1.87
2022-09-17T08:59:18.478Z,1.62
2022-09-17T09:05:10.996Z,1.70
2022-09-17T09:10:38.432Z,1.83
2022-09-17T09:16:11.598Z,1.77
2022-09-17T09:21:53.491Z,1.77
2022-09-17T09:27:42.269Z,1.73
2022-09-17T09:33:14.795Z,1.97
2022-09-17T09:39:15.668Z,1.83
2022-09-17T09:44:39.428Z,1.67
2022-09-17T09:51:06.276Z,1.80
2022-09-17T09:57:05.248Z,1.73
2022-09-17T10:02:28.191Z,1.62
2022-09-17T10:07:58.985Z,1.70
2022-09-17T10:13:26.593Z,1.87
2022-09-17T10:18:48.854Z,1.95
2022-09-17T10:24:14.613Z,1.60
2022-09-17T10:29:54.725Z,1.90
2022-09-17T10:35:24.983Z,1.60
2022-09-17T10:40:48.389Z,1.60
2022-09-17T10:46:17.189Z,1.70
2022-09-17T10:51:41.131Z,1.70
2022-09-17T10:57:09.587Z,1.95
2022-09-17T11:02:48.766Z,2.10
2022-09-17T11:08:41.705Z,1.87
2022-09-17T11:14:41.182Z,1.80
2022-09-17T11:20:12.341Z,2.00
2022-09-17T11:25:51.297Z,1.55
2022-09-17T11:31:47.334Z,1.63
2022-09-17T11:37:20.104Z,1.50
2022-09-17T11:42:51.910Z,1.50
2022-09-17T11:48:47.414Z,1.20
2022-09-17T11:54:30.937Z,1.70
2022-09-17T12:00:24.331Z,1.40
2022-09-17T12:05:59.286Z,1.35
2022-09-17T12:12:03.959Z,1.10
2022-09-17T12:17:36.777Z,1.50
2022-09-17T12:23:01.935Z,1.07
2022-09-17T12:28:39.002Z,1.10
2022-09-17T12:34:06.108Z,1.07
2022-09-17T12:40:09.467Z,0.80
2022-09-17T12:46:09.812Z,0.88
2022-09-17T12:52:00.556Z,1.10
2022-09-17T12:58:05.479Z,1.00
2022-09-17T13:04:06.976Z,1.10
2022-09-17T13:09:58.350Z,1.25
2022-09-17T13:16:14.383Z,1.30
2022-09-17T13:22:00.570Z,1.30
2022-09-17T13:27:38.264Z,1.10
2022-09-17T13:33:11.395Z,1.10
2022-09-17T13:38:35.242Z,1.00
2022-09-17T13:44:00.829Z,1.10
2022-09-17T13:49:27.254Z,0.80
2022-09-17T13:54:52.199Z,1.00
2022-09-17T14:00:17.886Z,1.17
2022-09-17T14:05:51.729Z,0.97
2022-09-17T14:11:17.863Z,0.90
2022-09-17T14:16:58.599Z,1.10
2022-09-17T14:22:33.843Z,1.10
2022-09-17T14:28:24.114Z,0.80
2022-09-17T14:33:47.712Z,1.00
2022-09-17T14:39:12.124Z,1.07
2022-09-17T14:44:37.501Z,0.90
2022-09-17T14:50:00.209Z,1.02
2022-09-17T14:55:34.714Z,1.02
2022-09-17T15:00:59.545Z,0.83
2022-09-17T15:06:27.501Z,0.60
2022-09-17T15:11:52.976Z,0.57
2022-09-17T15:17:22.444Z,0.70
2022-09-17T15:22:48.447Z,0.90
2022-09-17T15:28:15.947Z,0.80
2022-09-17T15:33:39.739Z,0.82
2022-09-17T15:39:05.289Z,0.90
2022-09-17T15:44:37.015Z,0.70
2022-09-17T15:50:17.516Z,0.90
2022-09-17T15:56:13.090Z,1.00
2022-09-17T16:01:48.414Z,1.10
2022-09-17T16:07:22.894Z,1.20
2022-09-17T16:12:45.963Z,1.20
2022-09-17T16:18:08.553Z,1.50
2022-09-17T16:23:32.282Z,1.10
2022-09-17T16:28:57.131Z,1.10
2022-09-17T16:34:19.552Z,1.57
2022-09-17T16:39:42.220Z,1.30
2022-09-17T16:45:04.985Z,1.62
2022-09-17T16:50:29.892Z,1.40
2022-09-17T16:55:52.429Z,1.65
2022-09-17T17:01:22.602Z,1.50
2022-09-17T17:06:45.804Z,1.82
2022-09-17T17:12:08.498Z,1.65
2022-09-17T17:17:31.821Z,1.60
2022-09-17T17:22:54.610Z,2.15
2022-09-17T17:28:17.301Z,2.07
2022-09-17T17:33:39.502Z,2.35
2022-09-17T17:39:05.409Z,3.87
2022-09-17T17:44:28.387Z,2.50
2022-09-17T17:49:51.100Z,2.10
2022-09-17T17:55:13.507Z,2.03
2022-09-17T18:00:36.031Z,1.97
2022-09-17T18:06:00.881Z,2.10
2022-09-17T18:11:24.515Z,2.30
2022-09-17T18:16:47.097Z,2.40
2022-09-17T18:22:11.606Z,2.40
2022-09-17T18:27:33.758Z,2.37
2022-09-17T18:32:56.315Z,2.52
2022-09-17T18:38:18.449Z,2.30
2022-09-17T18:43:41.449Z,1.90
2022-09-17T18:49:05.534Z,2.50
2022-09-17T18:54:28.975Z,2.50
2022-09-17T18:59:52.554Z,2.50
2022-09-17T19:05:16.807Z,2.10
2022-09-17T19:10:40.042Z,2.70
2022-09-17T19:16:05.599Z,2.85
2022-09-17T19:21:33.107Z,2.60
2022-09-17T19:26:55.359Z,2.60
2022-09-17T19:32:17.650Z,2.92
2022-09-17T19:37:39.795Z,3.10
2022-09-17T19:43:05.413Z,3.10
2022-09-17T19:48:27.641Z,2.90
2022-09-17T19:53:53.309Z,3.37
2022-09-17T19:59:16.209Z,4.12
2022-09-17T20:04:38.878Z,3.60
2022-09-17T20:10:01.127Z,3.50
2022-09-17T20:15:23.827Z,3.35
2022-09-17T20:20:47.302Z,3.85
2022-09-17T20:26:12.385Z,4.03
2022-09-17T20:31:41.050Z,3.60
2022-09-17T20:37:13.069Z,3.62
2022-09-17T20:42:29.120Z,3.33
2022-09-17T20:47:51.746Z,3.42
2022-09-17T20:53:13.885Z,3.58
2022-09-17T20:58:37.439Z,3.10
2022-09-17T21:04:01.860Z,2.90
2022-09-17T21:09:25.587Z,2.70
2022-09-17T21:14:48.137Z,2.50
2022-09-17T21:20:10.331Z,2.70
2022-09-17T21:25:33.010Z,2.60
2022-09-17T21:30:55.170Z,2.70
2022-09-17T21:36:23.481Z,2.63
2022-09-17T21:41:46.644Z,2.23
2022-09-17T21:47:12.299Z,3.15
2022-09-17T21:52:34.910Z,2.10
2022-09-17T21:57:57.049Z,2.40
2022-09-17T22:03:20.064Z,2.52
2022-09-17T22:08:42.281Z,2.35
2022-09-17T22:14:12.104Z,2.87
2022-09-17T22:19:37.039Z,2.20
2022-09-17T22:25:00.230Z,2.30
2022-09-17T22:30:22.684Z,2.47
2022-09-17T22:35:45.200Z,2.47
2022-09-17T22:41:11.207Z,2.20
2022-09-17T22:52:11.225Z,2.17
2022-09-17T22:57:33.822Z,1.83
2022-09-17T23:02:56.505Z,2.00
2022-09-17T23:08:19.838Z,1.53
2022-09-17T23:13:42.604Z,1.93
2022-09-17T23:19:05.489Z,1.80
2022-09-17T23:24:30.237Z,1.90
2022-09-17T23:29:52.356Z,2.03
2022-09-17T23:35:14.726Z,1.83
2022-09-17T23:40:37.601Z,2.13
2022-09-17T23:46:04.145Z,2.17
2022-09-17T23:57:04.009Z,2.50
